sensor_id;sensor_type;location;lat;lon;timestamp;temperature;humidity
65038;DHT22;51605;47.040;15.294;2023-06-14T00:01:44;22.40;61.90
65038;DHT22;51605;47.040;15.294;2023-06-14T00:04:11;22.40;61.90
65038;DHT22;51605;47.040;15.294;2023-06-14T00:06:36;22.40;62.00
65038;DHT22;51605;47.040;15.294;2023-06-14T00:09:03;22.40;61.80
65038;DHT22;51605;47.040;15.294;2023-06-14T00:11:31;22.40;61.80
65038;DHT22;51605;47.040;15.294;2023-06-14T00:13:56;22.40;61.90
65038;DHT22;51605;47.040;15.294;2023-06-14T00:16:23;22.40;61.90
65038;DHT22;51605;47.040;15.294;2023-06-14T00:18:48;22.40;62.00
65038;DHT22;51605;47.040;15.294;2023-06-14T00:21:14;22.40;62.00
65038;DHT22;51605;47.040;15.294;2023-06-14T00:23:39;22.40;62.00
65038;DHT22;51605;47.040;15.294;2023-06-14T00:26:05;22.40;61.90
65038;DHT22;51605;47.040;15.294;2023-06-14T00:28:31;22.40;62.00
65038;DHT22;51605;47.040;15.294;2023-06-14T00:30:57;22.40;62.80
65038;DHT22;51605;47.040;15.294;2023-06-14T00:33:22;22.40;62.00
65038;DHT22;51605;47.040;15.294;2023-06-14T00:35:48;22.40;62.10
65038;DHT22;51605;47.040;15.294;2023-06-14T00:38:13;22.40;62.00
65038;DHT22;51605;47.040;15.294;2023-06-14T00:40:39;22.40;62.00
65038;DHT22;51605;47.040;15.294;2023-06-14T00:43:05;22.40;62.00
65038;DHT22;51605;47.040;15.294;2023-06-14T00:45:31;22.40;62.00
65038;DHT22;51605;47.040;15.294;2023-06-14T00:48:01;22.40;62.00
65038;DHT22;51605;47.040;15.294;2023-06-14T00:50:28;22.40;62.00
65038;DHT22;51605;47.040;15.294;2023-06-14T00:52:55;22.40;62.00
65038;DHT22;51605;47.040;15.294;2023-06-14T00:55:21;22.40;62.10
65038;DHT22;51605;47.040;15.294;2023-06-14T00:57:48;22.40;62.10
65038;DHT22;51605;47.040;15.294;2023-06-14T01:00:14;22.40;62.10
65038;DHT22;51605;47.040;15.294;2023-06-14T01:02:40;22.40;62.00
65038;DHT22;51605;47.040;15.294;2023-06-14T01:05:06;22.40;62.10
65038;DHT22;51605;47.040;15.294;2023-06-14T01:15:43;22.40;62.30
65038;DHT22;51605;47.040;15.294;2023-06-14T01:18:09;22.40;62.90
65038;DHT22;51605;47.040;15.294;2023-06-14T01:20:43;22.40;62.10
65038;DHT22;51605;47.040;15.294;2023-06-14T01:23:11;22.40;62.10
65038;DHT22;51605;47.040;15.294;2023-06-14T01:25:40;22.40;62.00
65038;DHT22;51605;47.040;15.294;2023-06-14T01:28:10;22.40;62.00
65038;DHT22;51605;47.040;15.294;2023-06-14T01:30:40;22.40;62.10
65038;DHT22;51605;47.040;15.294;2023-06-14T01:33:13;22.40;62.10
65038;DHT22;51605;47.040;15.294;2023-06-14T01:35:44;22.40;62.00
65038;DHT22;51605;47.040;15.294;2023-06-14T01:38:10;22.40;62.00
65038;DHT22;51605;47.040;15.294;2023-06-14T01:40:38;22.40;62.00
65038;DHT22;51605;47.040;15.294;2023-06-14T01:43:06;22.40;62.10
65038;DHT22;51605;47.040;15.294;2023-06-14T01:45:33;22.40;62.00
65038;DHT22;51605;47.040;15.294;2023-06-14T01:48:00;22.40;62.00
65038;DHT22;51605;47.040;15.294;2023-06-14T01:50:30;22.40;62.00
65038;DHT22;51605;47.040;15.294;2023-06-14T01:52:56;22.40;62.10
65038;DHT22;51605;47.040;15.294;2023-06-14T01:55:22;22.40;62.10
65038;DHT22;51605;47.040;15.294;2023-06-14T01:57:50;22.40;62.00
65038;DHT22;51605;47.040;15.294;2023-06-14T02:00:16;22.40;62.00
65038;DHT22;51605;47.040;15.294;2023-06-14T02:02:44;22.30;62.00
65038;DHT22;51605;47.040;15.294;2023-06-14T02:05:09;22.40;62.00
65038;DHT22;51605;47.040;15.294;2023-06-14T02:07:36;22.40;62.00
65038;DHT22;51605;47.040;15.294;2023-06-14T02:10:02;22.40;62.00
65038;DHT22;51605;47.040;15.294;2023-06-14T02:12:28;22.40;62.00
65038;DHT22;51605;47.040;15.294;2023-06-14T02:14:53;22.40;62.00
65038;DHT22;51605;47.040;15.294;2023-06-14T02:17:19;22.40;62.00
65038;DHT22;51605;47.040;15.294;2023-06-14T02:19:45;22.40;62.00
65038;DHT22;51605;47.040;15.294;2023-06-14T02:22:11;22.40;62.00
65038;DHT22;51605;47.040;15.294;2023-06-14T02:24:37;22.40;62.00
65038;DHT22;51605;47.040;15.294;2023-06-14T02:27:03;22.40;61.90
65038;DHT22;51605;47.040;15.294;2023-06-14T02:29:28;22.40;61.90
65038;DHT22;51605;47.040;15.294;2023-06-14T02:31:54;22.40;62.00
65038;DHT22;51605;47.040;15.294;2023-06-14T02:34:20;22.40;62.90
65038;DHT22;51605;47.040;15.294;2023-06-14T02:36:47;22.40;62.00
65038;DHT22;51605;47.040;15.294;2023-06-14T02:39:13;22.40;62.00
65038;DHT22;51605;47.040;15.294;2023-06-14T02:41:39;22.40;61.80
65038;DHT22;51605;47.040;15.294;2023-06-14T02:44:06;22.40;61.90
65038;DHT22;51605;47.040;15.294;2023-06-14T02:46:32;22.40;61.90
65038;DHT22;51605;47.040;15.294;2023-06-14T02:48:58;22.40;62.80
65038;DHT22;51605;47.040;15.294;2023-06-14T02:51:24;22.40;62.00
65038;DHT22;51605;47.040;15.294;2023-06-14T02:53:50;22.40;62.00
65038;DHT22;51605;47.040;15.294;2023-06-14T02:56:16;22.40;62.00
65038;DHT22;51605;47.040;15.294;2023-06-14T02:58:43;22.40;62.00
65038;DHT22;51605;47.040;15.294;2023-06-14T03:01:08;22.40;62.00
65038;DHT22;51605;47.040;15.294;2023-06-14T03:03:38;22.40;61.90
65038;DHT22;51605;47.040;15.294;2023-06-14T03:06:04;22.40;61.90
65038;DHT22;51605;47.040;15.294;2023-06-14T03:08:33;22.40;62.10
65038;DHT22;51605;47.040;15.294;2023-06-14T03:11:04;22.40;62.00
65038;DHT22;51605;47.040;15.294;2023-06-14T03:13:31;22.40;62.00
65038;DHT22;51605;47.040;15.294;2023-06-14T03:15:57;22.40;62.00
65038;DHT22;51605;47.040;15.294;2023-06-14T03:18:23;22.40;62.00
65038;DHT22;51605;47.040;15.294;2023-06-14T03:20:49;22.40;62.00
65038;DHT22;51605;47.040;15.294;2023-06-14T03:23:16;22.40;62.00
65038;DHT22;51605;47.040;15.294;2023-06-14T03:25:43;22.40;62.00
65038;DHT22;51605;47.040;15.294;2023-06-14T03:28:08;22.40;62.00
65038;DHT22;51605;47.040;15.294;2023-06-14T03:30:34;22.40;62.00
65038;DHT22;51605;47.040;15.294;2023-06-14T03:33:00;22.40;62.00
65038;DHT22;51605;47.040;15.294;2023-06-14T03:35:29;22.40;61.90
65038;DHT22;51605;47.040;15.294;2023-06-14T03:37:54;22.40;62.00
65038;DHT22;51605;47.040;15.294;2023-06-14T03:40:20;22.40;62.00
65038;DHT22;51605;47.040;15.294;2023-06-14T03:42:46;22.40;62.00
65038;DHT22;51605;47.040;15.294;2023-06-14T03:45:12;22.40;61.90
65038;DHT22;51605;47.040;15.294;2023-06-14T03:47:38;22.40;62.00
65038;DHT22;51605;47.040;15.294;2023-06-14T03:50:04;22.40;62.00
65038;DHT22;51605;47.040;15.294;2023-06-14T03:52:30;22.40;62.00
65038;DHT22;51605;47.040;15.294;2023-06-14T03:54:58;22.40;62.00
65038;DHT22;51605;47.040;15.294;2023-06-14T03:57:26;22.40;62.00
65038;DHT22;51605;47.040;15.294;2023-06-14T03:59:51;22.40;62.00
65038;DHT22;51605;47.040;15.294;2023-06-14T04:02:17;22.40;62.00
65038;DHT22;51605;47.040;15.294;2023-06-14T04:04:43;22.40;62.10
65038;DHT22;51605;47.040;15.294;2023-06-14T04:07:11;22.40;62.00
65038;DHT22;51605;47.040;15.294;2023-06-14T04:09:37;22.40;62.00
65038;DHT22;51605;47.040;15.294;2023-06-14T04:12:04;22.40;62.00
65038;DHT22;51605;47.040;15.294;2023-06-14T04:14:30;22.40;62.00
65038;DHT22;51605;47.040;15.294;2023-06-14T04:16:59;22.40;62.00
65038;DHT22;51605;47.040;15.294;2023-06-14T04:19:24;22.40;61.90
65038;DHT22;51605;47.040;15.294;2023-06-14T04:21:50;22.40;62.00
65038;DHT22;51605;47.040;15.294;2023-06-14T04:24:16;22.40;62.00
65038;DHT22;51605;47.040;15.294;2023-06-14T04:26:45;22.40;62.00
65038;DHT22;51605;47.040;15.294;2023-06-14T04:29:15;22.40;62.00
65038;DHT22;51605;47.040;15.294;2023-06-14T04:31:46;22.40;62.00
65038;DHT22;51605;47.040;15.294;2023-06-14T04:34:14;22.40;62.00
65038;DHT22;51605;47.040;15.294;2023-06-14T04:36:43;22.40;62.00
65038;DHT22;51605;47.040;15.294;2023-06-14T04:39:17;22.40;62.10
65038;DHT22;51605;47.040;15.294;2023-06-14T04:41:43;22.40;62.10
65038;DHT22;51605;47.040;15.294;2023-06-14T04:44:10;22.30;62.00
65038;DHT22;51605;47.040;15.294;2023-06-14T04:46:36;22.30;62.00
65038;DHT22;51605;47.040;15.294;2023-06-14T04:49:17;22.40;62.10
65038;DHT22;51605;47.040;15.294;2023-06-14T04:51:44;22.40;62.10
65038;DHT22;51605;47.040;15.294;2023-06-14T04:54:10;22.40;62.00
65038;DHT22;51605;47.040;15.294;2023-06-14T04:56:39;22.40;62.00
65038;DHT22;51605;47.040;15.294;2023-06-14T04:59:05;22.40;61.90
65038;DHT22;51605;47.040;15.294;2023-06-14T05:01:32;22.40;62.00
65038;DHT22;51605;47.040;15.294;2023-06-14T05:03:58;22.40;62.00
65038;DHT22;51605;47.040;15.294;2023-06-14T05:06:24;22.40;62.00
65038;DHT22;51605;47.040;15.294;2023-06-14T05:08:49;22.40;61.90
65038;DHT22;51605;47.040;15.294;2023-06-14T05:11:16;22.40;62.00
65038;DHT22;51605;47.040;15.294;2023-06-14T05:13:42;22.40;62.10
65038;DHT22;51605;47.040;15.294;2023-06-14T05:16:10;22.40;62.00
65038;DHT22;51605;47.040;15.294;2023-06-14T05:18:36;22.40;62.10
65038;DHT22;51605;47.040;15.294;2023-06-14T05:21:03;22.40;62.10
65038;DHT22;51605;47.040;15.294;2023-06-14T05:23:29;22.40;62.10
65038;DHT22;51605;47.040;15.294;2023-06-14T05:25:55;22.40;62.10
65038;DHT22;51605;47.040;15.294;2023-06-14T05:28:22;22.40;61.90
65038;DHT22;51605;47.040;15.294;2023-06-14T05:30:47;22.40;61.90
65038;DHT22;51605;47.040;15.294;2023-06-14T05:33:13;22.40;62.00
65038;DHT22;51605;47.040;15.294;2023-06-14T05:35:39;22.40;61.90
65038;DHT22;51605;47.040;15.294;2023-06-14T05:38:04;22.40;62.00
65038;DHT22;51605;47.040;15.294;2023-06-14T05:40:31;22.40;62.00
65038;DHT22;51605;47.040;15.294;2023-06-14T05:42:56;22.40;62.00
65038;DHT22;51605;47.040;15.294;2023-06-14T05:45:22;22.40;62.10
65038;DHT22;51605;47.040;15.294;2023-06-14T05:47:48;22.40;62.00
65038;DHT22;51605;47.040;15.294;2023-06-14T05:50:13;22.40;62.00
65038;DHT22;51605;47.040;15.294;2023-06-14T05:52:39;22.40;62.10
65038;DHT22;51605;47.040;15.294;2023-06-14T05:55:05;22.40;62.10
65038;DHT22;51605;47.040;15.294;2023-06-14T05:57:31;22.40;62.10
65038;DHT22;51605;47.040;15.294;2023-06-14T05:59:57;22.40;62.10
65038;DHT22;51605;47.040;15.294;2023-06-14T06:02:22;22.40;62.10
65038;DHT22;51605;47.040;15.294;2023-06-14T06:04:48;22.40;62.10
65038;DHT22;51605;47.040;15.294;2023-06-14T06:07:14;22.40;62.10
65038;DHT22;51605;47.040;15.294;2023-06-14T06:09:40;22.40;62.10
65038;DHT22;51605;47.040;15.294;2023-06-14T06:12:07;22.40;62.00
65038;DHT22;51605;47.040;15.294;2023-06-14T06:14:32;22.40;62.00
65038;DHT22;51605;47.040;15.294;2023-06-14T06:16:58;22.40;62.00
65038;DHT22;51605;47.040;15.294;2023-06-14T06:19:24;22.40;62.00
65038;DHT22;51605;47.040;15.294;2023-06-14T06:21:50;22.40;62.00
65038;DHT22;51605;47.040;15.294;2023-06-14T06:24:15;22.40;62.00
65038;DHT22;51605;47.040;15.294;2023-06-14T06:26:41;22.40;62.00
65038;DHT22;51605;47.040;15.294;2023-06-14T06:29:07;22.40;62.10
65038;DHT22;51605;47.040;15.294;2023-06-14T06:31:32;22.40;62.10
65038;DHT22;51605;47.040;15.294;2023-06-14T06:33:58;22.40;62.10
65038;DHT22;51605;47.040;15.294;2023-06-14T06:36:24;22.40;62.20
65038;DHT22;51605;47.040;15.294;2023-06-14T06:38:50;22.40;62.20
65038;DHT22;51605;47.040;15.294;2023-06-14T06:41:15;22.40;62.20
65038;DHT22;51605;47.040;15.294;2023-06-14T06:43:41;22.40;62.30
65038;DHT22;51605;47.040;15.294;2023-06-14T06:46:07;22.40;62.20
65038;DHT22;51605;47.040;15.294;2023-06-14T06:48:33;22.40;62.30
65038;DHT22;51605;47.040;15.294;2023-06-14T06:50:58;22.40;62.20
65038;DHT22;51605;47.040;15.294;2023-06-14T06:53:24;22.40;62.20
65038;DHT22;51605;47.040;15.294;2023-06-14T06:55:49;22.40;62.20
65038;DHT22;51605;47.040;15.294;2023-06-14T06:58:15;22.40;62.20
65038;DHT22;51605;47.040;15.294;2023-06-14T07:00:41;22.40;62.10
65038;DHT22;51605;47.040;15.294;2023-06-14T07:03:07;22.40;62.20
65038;DHT22;51605;47.040;15.294;2023-06-14T07:05:32;22.40;62.10
65038;DHT22;51605;47.040;15.294;2023-06-14T07:07:58;22.40;62.10
65038;DHT22;51605;47.040;15.294;2023-06-14T07:10:24;22.40;62.10
65038;DHT22;51605;47.040;15.294;2023-06-14T07:12:50;22.40;62.20
65038;DHT22;51605;47.040;15.294;2023-06-14T07:15:16;22.40;62.20
65038;DHT22;51605;47.040;15.294;2023-06-14T07:17:42;22.40;62.20
65038;DHT22;51605;47.040;15.294;2023-06-14T07:20:08;22.40;62.10
65038;DHT22;51605;47.040;15.294;2023-06-14T07:22:40;22.40;62.10
65038;DHT22;51605;47.040;15.294;2023-06-14T07:25:10;22.50;62.20
65038;DHT22;51605;47.040;15.294;2023-06-14T07:27:42;22.40;62.10
65038;DHT22;51605;47.040;15.294;2023-06-14T07:30:09;22.40;62.10
65038;DHT22;51605;47.040;15.294;2023-06-14T07:32:35;22.40;62.10
65038;DHT22;51605;47.040;15.294;2023-06-14T07:35:01;22.40;62.10
65038;DHT22;51605;47.040;15.294;2023-06-14T07:37:27;22.40;62.20
65038;DHT22;51605;47.040;15.294;2023-06-14T07:39:52;22.40;62.20
65038;DHT22;51605;47.040;15.294;2023-06-14T07:42:18;22.40;62.10
65038;DHT22;51605;47.040;15.294;2023-06-14T07:44:43;22.40;62.10
65038;DHT22;51605;47.040;15.294;2023-06-14T07:47:09;22.40;62.10
65038;DHT22;51605;47.040;15.294;2023-06-14T07:49:34;22.40;62.30
65038;DHT22;51605;47.040;15.294;2023-06-14T07:52:00;22.50;62.90
65038;DHT22;51605;47.040;15.294;2023-06-14T07:54:26;22.50;63.00
65038;DHT22;51605;47.040;15.294;2023-06-14T07:56:52;22.60;63.20
65038;DHT22;51605;47.040;15.294;2023-06-14T07:59:18;22.60;63.30
65038;DHT22;51605;47.040;15.294;2023-06-14T08:01:44;22.80;63.40
65038;DHT22;51605;47.040;15.294;2023-06-14T08:04:16;22.80;63.50
65038;DHT22;51605;47.040;15.294;2023-06-14T08:06:42;22.90;63.50
65038;DHT22;51605;47.040;15.294;2023-06-14T08:09:12;23.00;63.40
65038;DHT22;51605;47.040;15.294;2023-06-14T08:11:38;23.10;63.20
65038;DHT22;51605;47.040;15.294;2023-06-14T08:14:04;23.20;63.10
65038;DHT22;51605;47.040;15.294;2023-06-14T08:16:29;23.30;62.80
65038;DHT22;51605;47.040;15.294;2023-06-14T08:18:55;23.40;62.60
65038;DHT22;51605;47.040;15.294;2023-06-14T08:21:21;23.40;62.40
65038;DHT22;51605;47.040;15.294;2023-06-14T08:23:47;23.30;62.30
65038;DHT22;51605;47.040;15.294;2023-06-14T08:26:13;23.30;62.20
65038;DHT22;51605;47.040;15.294;2023-06-14T08:28:38;23.30;62.20
65038;DHT22;51605;47.040;15.294;2023-06-14T08:31:04;23.30;62.10
65038;DHT22;51605;47.040;15.294;2023-06-14T08:33:30;23.20;62.70
65038;DHT22;51605;47.040;15.294;2023-06-14T08:35:59;23.20;62.60
65038;DHT22;51605;47.040;15.294;2023-06-14T08:38:25;23.10;62.60
65038;DHT22;51605;47.040;15.294;2023-06-14T08:40:51;23.10;62.60
65038;DHT22;51605;47.040;15.294;2023-06-14T08:43:19;23.00;62.60
65038;DHT22;51605;47.040;15.294;2023-06-14T08:45:46;23.00;62.60
65038;DHT22;51605;47.040;15.294;2023-06-14T08:48:14;23.00;62.70
65038;DHT22;51605;47.040;15.294;2023-06-14T08:50:43;23.00;62.70
65038;DHT22;51605;47.040;15.294;2023-06-14T08:53:13;23.00;62.70
65038;DHT22;51605;47.040;15.294;2023-06-14T08:55:45;22.90;62.70
65038;DHT22;51605;47.040;15.294;2023-06-14T08:58:11;22.90;62.80
65038;DHT22;51605;47.040;15.294;2023-06-14T09:00:40;22.90;62.70
65038;DHT22;51605;47.040;15.294;2023-06-14T09:03:08;22.90;62.70
65038;DHT22;51605;47.040;15.294;2023-06-14T09:05:38;22.90;62.80
65038;DHT22;51605;47.040;15.294;2023-06-14T09:08:04;22.80;62.80
65038;DHT22;51605;47.040;15.294;2023-06-14T09:10:31;22.80;62.80
65038;DHT22;51605;47.040;15.294;2023-06-14T09:13:03;22.80;62.70
65038;DHT22;51605;47.040;15.294;2023-06-14T09:15:30;22.80;62.70
65038;DHT22;51605;47.040;15.294;2023-06-14T09:17:55;22.80;62.80
65038;DHT22;51605;47.040;15.294;2023-06-14T09:20:24;22.80;62.80
65038;DHT22;51605;47.040;15.294;2023-06-14T09:22:49;22.80;62.70
65038;DHT22;51605;47.040;15.294;2023-06-14T09:25:15;22.70;62.70
65038;DHT22;51605;47.040;15.294;2023-06-14T09:27:41;22.70;62.80
65038;DHT22;51605;47.040;15.294;2023-06-14T09:30:09;22.70;63.10
65038;DHT22;51605;47.040;15.294;2023-06-14T09:32:39;22.70;63.30
65038;DHT22;51605;47.040;15.294;2023-06-14T09:35:06;22.70;63.50
65038;DHT22;51605;47.040;15.294;2023-06-14T09:37:33;22.80;63.70
65038;DHT22;51605;47.040;15.294;2023-06-14T09:40:00;22.80;63.70
65038;DHT22;51605;47.040;15.294;2023-06-14T09:42:26;22.90;64.10
65038;DHT22;51605;47.040;15.294;2023-06-14T09:44:52;23.00;64.00
65038;DHT22;51605;47.040;15.294;2023-06-14T09:47:19;23.10;64.10
65038;DHT22;51605;47.040;15.294;2023-06-14T09:49:45;23.20;63.80
65038;DHT22;51605;47.040;15.294;2023-06-14T09:52:14;23.30;63.80
65038;DHT22;51605;47.040;15.294;2023-06-14T09:54:42;23.30;63.70
65038;DHT22;51605;47.040;15.294;2023-06-14T09:57:22;23.40;63.60
65038;DHT22;51605;47.040;15.294;2023-06-14T09:59:51;23.50;63.50
65038;DHT22;51605;47.040;15.294;2023-06-14T10:02:31;23.50;63.30
65038;DHT22;51605;47.040;15.294;2023-06-14T10:05:04;23.60;63.20
65038;DHT22;51605;47.040;15.294;2023-06-14T10:07:40;23.70;63.00
65038;DHT22;51605;47.040;15.294;2023-06-14T10:10:06;23.70;62.90
65038;DHT22;51605;47.040;15.294;2023-06-14T10:12:33;23.70;62.80
65038;DHT22;51605;47.040;15.294;2023-06-14T10:14:59;23.80;62.70
65038;DHT22;51605;47.040;15.294;2023-06-14T10:19:58;23.70;62.60
65038;DHT22;51605;47.040;15.294;2023-06-14T10:22:40;23.70;62.70
65038;DHT22;51605;47.040;15.294;2023-06-14T10:25:12;23.60;62.80
65038;DHT22;51605;47.040;15.294;2023-06-14T10:27:38;23.50;62.80
65038;DHT22;51605;47.040;15.294;2023-06-14T10:30:07;23.50;63.00
65038;DHT22;51605;47.040;15.294;2023-06-14T10:32:33;23.40;63.10
65038;DHT22;51605;47.040;15.294;2023-06-14T10:35:05;23.30;63.10
65038;DHT22;51605;47.040;15.294;2023-06-14T10:37:34;23.30;63.90
65038;DHT22;51605;47.040;15.294;2023-06-14T10:40:01;23.30;63.30
65038;DHT22;51605;47.040;15.294;2023-06-14T10:42:33;23.20;63.30
65038;DHT22;51605;47.040;15.294;2023-06-14T10:45:00;23.20;63.40
65038;DHT22;51605;47.040;15.294;2023-06-14T10:47:32;23.10;63.40
65038;DHT22;51605;47.040;15.294;2023-06-14T10:50:07;23.10;63.40
65038;DHT22;51605;47.040;15.294;2023-06-14T10:52:43;23.10;63.50
65038;DHT22;51605;47.040;15.294;2023-06-14T10:55:11;23.00;63.50
65038;DHT22;51605;47.040;15.294;2023-06-14T10:57:42;23.10;63.60
65038;DHT22;51605;47.040;15.294;2023-06-14T11:00:09;23.00;63.60
65038;DHT22;51605;47.040;15.294;2023-06-14T11:05:57;23.00;63.70
65038;DHT22;51605;47.040;15.294;2023-06-14T11:08:39;22.90;63.60
65038;DHT22;51605;47.040;15.294;2023-06-14T11:11:09;22.90;63.70
65038;DHT22;51605;47.040;15.294;2023-06-14T11:13:38;22.90;63.70
65038;DHT22;51605;47.040;15.294;2023-06-14T11:16:14;22.90;63.70
65038;DHT22;51605;47.040;15.294;2023-06-14T11:18:41;22.90;63.60
65038;DHT22;51605;47.040;15.294;2023-06-14T11:21:07;22.90;63.60
65038;DHT22;51605;47.040;15.294;2023-06-14T11:23:34;22.90;63.70
65038;DHT22;51605;47.040;15.294;2023-06-14T11:26:00;22.90;63.80
65038;DHT22;51605;47.040;15.294;2023-06-14T11:28:38;22.90;63.60
65038;DHT22;51605;47.040;15.294;2023-06-14T11:31:04;22.90;63.70
65038;DHT22;51605;47.040;15.294;2023-06-14T11:33:30;22.80;63.60
65038;DHT22;51605;47.040;15.294;2023-06-14T11:35:56;22.80;63.70
65038;DHT22;51605;47.040;15.294;2023-06-14T11:38:22;22.80;63.70
65038;DHT22;51605;47.040;15.294;2023-06-14T11:40:58;22.80;63.70
65038;DHT22;51605;47.040;15.294;2023-06-14T11:43:28;22.80;63.80
65038;DHT22;51605;47.040;15.294;2023-06-14T11:45:57;22.80;63.70
65038;DHT22;51605;47.040;15.294;2023-06-14T11:48:23;22.80;63.90
65038;DHT22;51605;47.040;15.294;2023-06-14T11:50:50;22.80;63.70
65038;DHT22;51605;47.040;15.294;2023-06-14T11:53:19;22.80;63.70
65038;DHT22;51605;47.040;15.294;2023-06-14T11:55:45;22.80;63.70
65038;DHT22;51605;47.040;15.294;2023-06-14T11:58:13;22.80;63.70
65038;DHT22;51605;47.040;15.294;2023-06-14T12:00:41;22.80;63.70
65038;DHT22;51605;47.040;15.294;2023-06-14T12:03:07;22.80;63.70
65038;DHT22;51605;47.040;15.294;2023-06-14T12:05:33;22.70;63.60
65038;DHT22;51605;47.040;15.294;2023-06-14T12:08:03;22.70;63.70
65038;DHT22;51605;47.040;15.294;2023-06-14T12:10:39;22.70;63.60
65038;DHT22;51605;47.040;15.294;2023-06-14T12:13:06;22.70;63.70
65038;DHT22;51605;47.040;15.294;2023-06-14T12:15:33;22.70;63.60
65038;DHT22;51605;47.040;15.294;2023-06-14T12:17:58;22.70;63.70
65038;DHT22;51605;47.040;15.294;2023-06-14T12:20:29;22.70;63.70
65038;DHT22;51605;47.040;15.294;2023-06-14T12:23:03;22.70;63.70
65038;DHT22;51605;47.040;15.294;2023-06-14T12:25:36;22.70;63.70
65038;DHT22;51605;47.040;15.294;2023-06-14T12:28:08;22.70;63.80
65038;DHT22;51605;47.040;15.294;2023-06-14T12:30:38;22.70;63.80
65038;DHT22;51605;47.040;15.294;2023-06-14T12:33:04;22.70;63.80
65038;DHT22;51605;47.040;15.294;2023-06-14T12:35:30;22.70;63.70
65038;DHT22;51605;47.040;15.294;2023-06-14T12:37:56;22.70;63.80
65038;DHT22;51605;47.040;15.294;2023-06-14T12:40:22;22.60;63.70
65038;DHT22;51605;47.040;15.294;2023-06-14T12:42:48;22.60;63.70
65038;DHT22;51605;47.040;15.294;2023-06-14T12:45:14;22.60;63.60
65038;DHT22;51605;47.040;15.294;2023-06-14T12:47:40;22.60;63.70
65038;DHT22;51605;47.040;15.294;2023-06-14T12:50:07;22.60;63.70
65038;DHT22;51605;47.040;15.294;2023-06-14T12:52:33;22.60;63.70
65038;DHT22;51605;47.040;15.294;2023-06-14T12:55:03;22.60;63.80
65038;DHT22;51605;47.040;15.294;2023-06-14T12:57:29;22.60;63.70
65038;DHT22;51605;47.040;15.294;2023-06-14T12:59:55;22.60;63.60
65038;DHT22;51605;47.040;15.294;2023-06-14T13:02:20;22.60;63.60
65038;DHT22;51605;47.040;15.294;2023-06-14T13:04:47;22.60;63.60
65038;DHT22;51605;47.040;15.294;2023-06-14T13:07:13;22.60;63.70
65038;DHT22;51605;47.040;15.294;2023-06-14T13:09:40;22.60;63.60
65038;DHT22;51605;47.040;15.294;2023-06-14T13:12:07;22.60;63.60
65038;DHT22;51605;47.040;15.294;2023-06-14T13:14:32;22.60;63.50
65038;DHT22;51605;47.040;15.294;2023-06-14T13:16:58;22.70;63.60
65038;DHT22;51605;47.040;15.294;2023-06-14T13:19:24;22.60;63.50
65038;DHT22;51605;47.040;15.294;2023-06-14T13:21:49;22.60;63.50
65038;DHT22;51605;47.040;15.294;2023-06-14T13:24:15;22.60;63.60
65038;DHT22;51605;47.040;15.294;2023-06-14T13:26:41;22.60;63.50
65038;DHT22;51605;47.040;15.294;2023-06-14T13:29:07;22.60;63.60
65038;DHT22;51605;47.040;15.294;2023-06-14T13:31:32;22.60;63.60
65038;DHT22;51605;47.040;15.294;2023-06-14T13:33:58;22.60;63.60
65038;DHT22;51605;47.040;15.294;2023-06-14T13:36:24;22.60;63.60
65038;DHT22;51605;47.040;15.294;2023-06-14T13:38:49;22.60;63.60
65038;DHT22;51605;47.040;15.294;2023-06-14T13:41:17;22.60;63.60
65038;DHT22;51605;47.040;15.294;2023-06-14T13:43:42;22.60;63.60
65038;DHT22;51605;47.040;15.294;2023-06-14T13:46:08;22.60;63.60
65038;DHT22;51605;47.040;15.294;2023-06-14T13:48:33;22.60;63.60
65038;DHT22;51605;47.040;15.294;2023-06-14T13:51:00;22.60;63.50
65038;DHT22;51605;47.040;15.294;2023-06-14T13:53:26;22.60;63.50
65038;DHT22;51605;47.040;15.294;2023-06-14T13:55:52;22.60;63.50
65038;DHT22;51605;47.040;15.294;2023-06-14T13:58:18;22.60;63.50
65038;DHT22;51605;47.040;15.294;2023-06-14T14:00:44;22.60;63.50
65038;DHT22;51605;47.040;15.294;2023-06-14T14:03:10;22.60;63.50
65038;DHT22;51605;47.040;15.294;2023-06-14T14:05:36;22.60;63.50
65038;DHT22;51605;47.040;15.294;2023-06-14T14:08:02;22.60;63.50
65038;DHT22;51605;47.040;15.294;2023-06-14T14:10:29;22.60;63.50
65038;DHT22;51605;47.040;15.294;2023-06-14T14:12:54;22.60;63.50
65038;DHT22;51605;47.040;15.294;2023-06-14T14:15:20;22.60;63.30
65038;DHT22;51605;47.040;15.294;2023-06-14T14:17:46;22.60;63.30
65038;DHT22;51605;47.040;15.294;2023-06-14T14:20:12;22.60;63.40
65038;DHT22;51605;47.040;15.294;2023-06-14T14:22:41;22.60;63.40
65038;DHT22;51605;47.040;15.294;2023-06-14T14:25:07;22.60;63.40
65038;DHT22;51605;47.040;15.294;2023-06-14T14:27:33;22.60;63.40
65038;DHT22;51605;47.040;15.294;2023-06-14T14:29:59;22.60;63.40
65038;DHT22;51605;47.040;15.294;2023-06-14T14:32:24;22.60;63.40
65038;DHT22;51605;47.040;15.294;2023-06-14T14:34:50;22.60;63.30
65038;DHT22;51605;47.040;15.294;2023-06-14T14:37:16;22.60;63.40
65038;DHT22;51605;47.040;15.294;2023-06-14T14:39:43;22.60;63.30
65038;DHT22;51605;47.040;15.294;2023-06-14T14:42:09;22.60;63.30
65038;DHT22;51605;47.040;15.294;2023-06-14T14:44:36;22.60;63.30
65038;DHT22;51605;47.040;15.294;2023-06-14T14:47:02;22.60;63.30
65038;DHT22;51605;47.040;15.294;2023-06-14T14:49:28;22.60;63.30
65038;DHT22;51605;47.040;15.294;2023-06-14T14:51:55;22.60;64.10
65038;DHT22;51605;47.040;15.294;2023-06-14T14:54:21;22.60;63.20
65038;DHT22;51605;47.040;15.294;2023-06-14T14:56:47;22.60;63.20
65038;DHT22;51605;47.040;15.294;2023-06-14T14:59:13;22.60;63.20
65038;DHT22;51605;47.040;15.294;2023-06-14T15:01:39;22.50;63.20
65038;DHT22;51605;47.040;15.294;2023-06-14T15:04:04;22.60;63.20
65038;DHT22;51605;47.040;15.294;2023-06-14T15:06:30;22.60;63.20
65038;DHT22;51605;47.040;15.294;2023-06-14T15:08:56;22.60;63.10
65038;DHT22;51605;47.040;15.294;2023-06-14T15:11:21;22.60;63.20
65038;DHT22;51605;47.040;15.294;2023-06-14T15:13:47;22.60;63.10
65038;DHT22;51605;47.040;15.294;2023-06-14T15:16:14;22.60;63.00
65038;DHT22;51605;47.040;15.294;2023-06-14T15:18:40;22.60;63.10
65038;DHT22;51605;47.040;15.294;2023-06-14T15:21:05;22.50;63.00
65038;DHT22;51605;47.040;15.294;2023-06-14T15:23:31;22.60;63.10
65038;DHT22;51605;47.040;15.294;2023-06-14T15:25:57;22.50;63.00
65038;DHT22;51605;47.040;15.294;2023-06-14T15:28:23;22.50;63.00